sensor_id;sensor_type;location;lat;lon;timestamp;P1;durP1;ratioP1;P2;durP2;ratioP2
37237;SDS011;23129;49.662;8.448;2023-11-19T00:00:27;12.95;;;5.25;;
37237;SDS011;23129;49.662;8.448;2023-11-19T00:02:57;13.32;;;5.88;;
37237;SDS011;23129;49.662;8.448;2023-11-19T00:05:26;14.45;;;7.32;;
37237;SDS011;23129;49.662;8.448;2023-11-19T00:07:55;17.08;;;8.60;;
37237;SDS011;23129;49.662;8.448;2023-11-19T00:10:24;12.73;;;6.70;;
37237;SDS011;23129;49.662;8.448;2023-11-19T00:12:52;15.82;;;5.20;;
37237;SDS011;23129;49.662;8.448;2023-11-19T00:15:21;30.25;;;7.10;;
37237;SDS011;23129;49.662;8.448;2023-11-19T00:17:50;13.55;;;6.95;;
37237;SDS011;23129;49.662;8.448;2023-11-19T00:20:20;14.23;;;5.88;;
37237;SDS011;23129;49.662;8.448;2023-11-19T00:22:49;9.40;;;5.00;;
37237;SDS011;23129;49.662;8.448;2023-11-19T00:25:19;19.70;;;7.03;;
37237;SDS011;23129;49.662;8.448;2023-11-19T00:27:49;9.00;;;5.18;;
37237;SDS011;23129;49.662;8.448;2023-11-19T00:30:20;5.60;;;4.72;;
37237;SDS011;23129;49.662;8.448;2023-11-19T00:32:48;9.07;;;4.38;;
37237;SDS011;23129;49.662;8.448;2023-11-19T00:35:17;9.32;;;4.80;;
37237;SDS011;23129;49.662;8.448;2023-11-19T00:37:47;10.60;;;5.13;;
37237;SDS011;23129;49.662;8.448;2023-11-19T00:40:16;5.50;;;4.28;;
37237;SDS011;23129;49.662;8.448;2023-11-19T00:42:48;7.18;;;4.90;;
37237;SDS011;23129;49.662;8.448;2023-11-19T00:45:17;6.85;;;4.95;;
37237;SDS011;23129;49.662;8.448;2023-11-19T00:47:45;6.50;;;4.38;;
37237;SDS011;23129;49.662;8.448;2023-11-19T00:50:14;9.20;;;4.28;;
37237;SDS011;23129;49.662;8.448;2023-11-19T00:52:44;6.45;;;4.22;;
37237;SDS011;23129;49.662;8.448;2023-11-19T00:55:15;7.50;;;4.50;;
37237;SDS011;23129;49.662;8.448;2023-11-19T00:57:44;6.95;;;4.07;;
37237;SDS011;23129;49.662;8.448;2023-11-19T01:00:13;7.75;;;4.70;;
37237;SDS011;23129;49.662;8.448;2023-11-19T01:02:46;9.20;;;5.45;;
37237;SDS011;23129;49.662;8.448;2023-11-19T01:05:18;7.75;;;3.85;;
37237;SDS011;23129;49.662;8.448;2023-11-19T01:07:49;10.15;;;4.22;;
37237;SDS011;23129;49.662;8.448;2023-11-19T01:10:22;5.07;;;3.90;;
37237;SDS011;23129;49.662;8.448;2023-11-19T01:12:52;7.00;;;4.03;;
37237;SDS011;23129;49.662;8.448;2023-11-19T01:15:21;7.88;;;3.58;;
37237;SDS011;23129;49.662;8.448;2023-11-19T01:17:50;4.43;;;3.40;;
37237;SDS011;23129;49.662;8.448;2023-11-19T01:20:19;5.03;;;3.28;;
37237;SDS011;23129;49.662;8.448;2023-11-19T01:22:48;4.82;;;3.55;;
37237;SDS011;23129;49.662;8.448;2023-11-19T01:25:17;4.97;;;2.92;;
37237;SDS011;23129;49.662;8.448;2023-11-19T01:27:48;3.88;;;3.47;;
37237;SDS011;23129;49.662;8.448;2023-11-19T01:30:17;4.65;;;4.03;;
37237;SDS011;23129;49.662;8.448;2023-11-19T01:32:48;7.45;;;3.65;;
37237;SDS011;23129;49.662;8.448;2023-11-19T01:35:17;7.82;;;4.55;;
37237;SDS011;23129;49.662;8.448;2023-11-19T01:37:45;3.13;;;2.80;;
37237;SDS011;23129;49.662;8.448;2023-11-19T01:40:14;3.90;;;3.45;;
37237;SDS011;23129;49.662;8.448;2023-11-19T01:42:48;3.42;;;3.10;;
37237;SDS011;23129;49.662;8.448;2023-11-19T01:45:21;7.38;;;3.05;;
37237;SDS011;23129;49.662;8.448;2023-11-19T01:47:55;4.18;;;3.05;;
37237;SDS011;23129;49.662;8.448;2023-11-19T01:50:24;3.25;;;2.75;;
37237;SDS011;23129;49.662;8.448;2023-11-19T01:52:53;5.03;;;3.10;;
37237;SDS011;23129;49.662;8.448;2023-11-19T01:55:24;3.38;;;2.97;;
37237;SDS011;23129;49.662;8.448;2023-11-19T01:57:57;3.60;;;2.75;;
37237;SDS011;23129;49.662;8.448;2023-11-19T02:00:29;9.50;;;3.92;;
37237;SDS011;23129;49.662;8.448;2023-11-19T02:03:00;13.07;;;3.80;;
37237;SDS011;23129;49.662;8.448;2023-11-19T02:05:30;4.40;;;2.78;;
37237;SDS011;23129;49.662;8.448;2023-11-19T02:07:59;4.68;;;2.58;;
37237;SDS011;23129;49.662;8.448;2023-11-19T02:10:29;5.07;;;2.45;;
37237;SDS011;23129;49.662;8.448;2023-11-19T02:13:00;3.78;;;2.30;;
37237;SDS011;23129;49.662;8.448;2023-11-19T02:15:32;4.78;;;2.63;;
37237;SDS011;23129;49.662;8.448;2023-11-19T02:18:17;4.18;;;2.40;;
37237;SDS011;23129;49.662;8.448;2023-11-19T02:20:48;4.18;;;2.97;;
37237;SDS011;23129;49.662;8.448;2023-11-19T02:23:18;5.90;;;2.30;;
37237;SDS011;23129;49.662;8.448;2023-11-19T02:25:52;6.95;;;2.58;;
37237;SDS011;23129;49.662;8.448;2023-11-19T02:28:31;1.42;;;1.30;;
37237;SDS011;23129;49.662;8.448;2023-11-19T02:31:00;7.22;;;2.22;;
37237;SDS011;23129;49.662;8.448;2023-11-19T02:33:31;2.95;;;1.60;;
37237;SDS011;23129;49.662;8.448;2023-11-19T02:36:01;2.38;;;1.95;;
37237;SDS011;23129;49.662;8.448;2023-11-19T02:38:30;6.68;;;2.55;;
37237;SDS011;23129;49.662;8.448;2023-11-19T02:40:59;3.58;;;1.65;;
37237;SDS011;23129;49.662;8.448;2023-11-19T02:43:33;4.20;;;1.63;;
37237;SDS011;23129;49.662;8.448;2023-11-19T02:46:02;3.28;;;1.67;;
37237;SDS011;23129;49.662;8.448;2023-11-19T02:48:36;3.37;;;2.50;;
37237;SDS011;23129;49.662;8.448;2023-11-19T02:51:06;4.50;;;2.17;;
37237;SDS011;23129;49.662;8.448;2023-11-19T02:53:36;3.10;;;1.80;;
37237;SDS011;23129;49.662;8.448;2023-11-19T02:56:07;1.70;;;1.60;;
37237;SDS011;23129;49.662;8.448;2023-11-19T02:58:47;2.38;;;1.40;;
37237;SDS011;23129;49.662;8.448;2023-11-19T03:01:21;4.63;;;2.60;;
37237;SDS011;23129;49.662;8.448;2023-11-19T03:03:57;5.82;;;2.22;;
37237;SDS011;23129;49.662;8.448;2023-11-19T03:06:29;6.57;;;1.83;;
37237;SDS011;23129;49.662;8.448;2023-11-19T03:08:58;3.60;;;1.73;;
37237;SDS011;23129;49.662;8.448;2023-11-19T03:11:33;9.63;;;2.55;;
37237;SDS011;23129;49.662;8.448;2023-11-19T03:14:03;5.82;;;2.40;;
37237;SDS011;23129;49.662;8.448;2023-11-19T03:16:32;6.25;;;2.25;;
37237;SDS011;23129;49.662;8.448;2023-11-19T03:19:01;4.25;;;1.80;;
37237;SDS011;23129;49.662;8.448;2023-11-19T03:21:31;3.67;;;1.95;;
37237;SDS011;23129;49.662;8.448;2023-11-19T03:24:00;3.50;;;1.90;;
37237;SDS011;23129;49.662;8.448;2023-11-19T03:26:29;3.75;;;1.83;;
37237;SDS011;23129;49.662;8.448;2023-11-19T03:28:57;2.17;;;1.38;;
37237;SDS011;23129;49.662;8.448;2023-11-19T03:31:28;5.05;;;2.13;;
37237;SDS011;23129;49.662;8.448;2023-11-19T03:33:56;3.70;;;1.67;;
37237;SDS011;23129;49.662;8.448;2023-11-19T03:36:25;3.90;;;1.65;;
37237;SDS011;23129;49.662;8.448;2023-11-19T03:39:00;2.75;;;1.65;;
37237;SDS011;23129;49.662;8.448;2023-11-19T03:41:30;3.42;;;1.58;;
37237;SDS011;23129;49.662;8.448;2023-11-19T03:44:01;5.10;;;2.10;;
37237;SDS011;23129;49.662;8.448;2023-11-19T03:46:31;5.55;;;2.10;;
37237;SDS011;23129;49.662;8.448;2023-11-19T03:49:01;4.13;;;2.58;;
37237;SDS011;23129;49.662;8.448;2023-11-19T03:51:32;5.03;;;1.90;;
37237;SDS011;23129;49.662;8.448;2023-11-19T03:54:01;3.45;;;2.20;;
37237;SDS011;23129;49.662;8.448;2023-11-19T03:56:30;9.57;;;3.03;;
37237;SDS011;23129;49.662;8.448;2023-11-19T03:58:59;4.75;;;2.13;;
37237;SDS011;23129;49.662;8.448;2023-11-19T04:01:28;5.47;;;2.65;;
37237;SDS011;23129;49.662;8.448;2023-11-19T04:03:58;3.72;;;2.22;;
37237;SDS011;23129;49.662;8.448;2023-11-19T04:06:27;1.83;;;1.70;;
37237;SDS011;23129;49.662;8.448;2023-11-19T04:08:56;3.78;;;2.03;;
37237;SDS011;23129;49.662;8.448;2023-11-19T04:11:24;7.97;;;3.67;;
37237;SDS011;23129;49.662;8.448;2023-11-19T04:13:53;3.90;;;2.20;;
37237;SDS011;23129;49.662;8.448;2023-11-19T04:16:25;3.92;;;2.30;;
37237;SDS011;23129;49.662;8.448;2023-11-19T04:18:56;3.30;;;1.70;;
37237;SDS011;23129;49.662;8.448;2023-11-19T04:21:26;2.35;;;1.98;;
37237;SDS011;23129;49.662;8.448;2023-11-19T04:23:54;2.42;;;1.75;;
37237;SDS011;23129;49.662;8.448;2023-11-19T04:26:23;2.60;;;1.70;;
37237;SDS011;23129;49.662;8.448;2023-11-19T04:28:52;0.88;;;0.88;;
37237;SDS011;23129;49.662;8.448;2023-11-19T04:31:20;1.00;;;0.82;;
37237;SDS011;23129;49.662;8.448;2023-11-19T04:33:52;1.08;;;0.60;;
37237;SDS011;23129;49.662;8.448;2023-11-19T04:36:23;1.02;;;0.70;;
37237;SDS011;23129;49.662;8.448;2023-11-19T04:38:51;0.60;;;0.60;;
37237;SDS011;23129;49.662;8.448;2023-11-19T04:41:20;0.50;;;0.50;;
37237;SDS011;23129;49.662;8.448;2023-11-19T04:43:49;0.60;;;0.60;;
37237;SDS011;23129;49.662;8.448;2023-11-19T04:46:18;0.73;;;0.60;;
37237;SDS011;23129;49.662;8.448;2023-11-19T04:48:47;1.13;;;0.52;;
37237;SDS011;23129;49.662;8.448;2023-11-19T04:51:16;0.63;;;0.63;;
37237;SDS011;23129;49.662;8.448;2023-11-19T04:53:46;0.93;;;0.85;;
37237;SDS011;23129;49.662;8.448;2023-11-19T04:56:14;1.00;;;0.60;;
37237;SDS011;23129;49.662;8.448;2023-11-19T04:58:46;1.48;;;0.80;;
37237;SDS011;23129;49.662;8.448;2023-11-19T05:01:14;6.18;;;1.15;;
37237;SDS011;23129;49.662;8.448;2023-11-19T05:03:44;1.10;;;0.95;;
37237;SDS011;23129;49.662;8.448;2023-11-19T05:06:13;0.90;;;0.90;;
37237;SDS011;23129;49.662;8.448;2023-11-19T05:08:42;2.97;;;0.90;;
37237;SDS011;23129;49.662;8.448;2023-11-19T05:11:13;0.80;;;0.80;;
37237;SDS011;23129;49.662;8.448;2023-11-19T05:13:44;1.10;;;0.80;;
37237;SDS011;23129;49.662;8.448;2023-11-19T05:16:13;2.90;;;0.80;;
37237;SDS011;23129;49.662;8.448;2023-11-19T05:18:42;1.50;;;0.90;;
37237;SDS011;23129;49.662;8.448;2023-11-19T05:21:11;3.65;;;1.00;;
37237;SDS011;23129;49.662;8.448;2023-11-19T05:23:40;1.75;;;1.25;;
37237;SDS011;23129;49.662;8.448;2023-11-19T05:26:08;0.98;;;0.98;;
37237;SDS011;23129;49.662;8.448;2023-11-19T05:28:45;1.30;;;1.20;;
37237;SDS011;23129;49.662;8.448;2023-11-19T05:31:15;1.45;;;1.05;;
37237;SDS011;23129;49.662;8.448;2023-11-19T05:33:45;1.30;;;1.13;;
37237;SDS011;23129;49.662;8.448;2023-11-19T05:36:13;1.23;;;0.90;;
37237;SDS011;23129;49.662;8.448;2023-11-19T05:38:42;2.60;;;1.02;;
37237;SDS011;23129;49.662;8.448;2023-11-19T05:41:12;2.60;;;0.70;;
37237;SDS011;23129;49.662;8.448;2023-11-19T05:43:41;1.15;;;0.90;;
37237;SDS011;23129;49.662;8.448;2023-11-19T05:46:11;0.88;;;0.80;;
37237;SDS011;23129;49.662;8.448;2023-11-19T05:48:42;1.90;;;1.00;;
37237;SDS011;23129;49.662;8.448;2023-11-19T05:51:13;1.90;;;1.23;;
37237;SDS011;23129;49.662;8.448;2023-11-19T05:53:42;1.80;;;1.67;;
37237;SDS011;23129;49.662;8.448;2023-11-19T05:56:12;2.50;;;1.90;;
37237;SDS011;23129;49.662;8.448;2023-11-19T05:58:42;3.83;;;1.95;;
37237;SDS011;23129;49.662;8.448;2023-11-19T06:01:13;2.65;;;2.40;;
37237;SDS011;23129;49.662;8.448;2023-11-19T06:03:41;2.30;;;1.90;;
37237;SDS011;23129;49.662;8.448;2023-11-19T06:06:14;5.45;;;3.13;;
37237;SDS011;23129;49.662;8.448;2023-11-19T06:08:42;3.53;;;2.03;;
37237;SDS011;23129;49.662;8.448;2023-11-19T06:11:11;3.10;;;1.77;;
37237;SDS011;23129;49.662;8.448;2023-11-19T06:13:44;3.50;;;2.47;;
37237;SDS011;23129;49.662;8.448;2023-11-19T06:16:15;2.58;;;1.98;;
37237;SDS011;23129;49.662;8.448;2023-11-19T06:18:44;3.97;;;2.85;;
37237;SDS011;23129;49.662;8.448;2023-11-19T06:21:13;2.28;;;2.08;;
37237;SDS011;23129;49.662;8.448;2023-11-19T06:23:42;2.30;;;1.85;;
37237;SDS011;23129;49.662;8.448;2023-11-19T06:26:11;4.03;;;2.42;;
37237;SDS011;23129;49.662;8.448;2023-11-19T06:28:40;3.60;;;2.40;;
37237;SDS011;23129;49.662;8.448;2023-11-19T06:31:09;8.77;;;2.88;;
37237;SDS011;23129;49.662;8.448;2023-11-19T06:33:39;3.47;;;2.78;;
37237;SDS011;23129;49.662;8.448;2023-11-19T06:36:08;6.07;;;2.15;;
37237;SDS011;23129;49.662;8.448;2023-11-19T06:38:37;3.42;;;2.10;;
37237;SDS011;23129;49.662;8.448;2023-11-19T06:41:07;5.32;;;1.38;;
37237;SDS011;23129;49.662;8.448;2023-11-19T06:43:36;2.33;;;1.58;;
37237;SDS011;23129;49.662;8.448;2023-11-19T06:46:14;1.45;;;1.35;;
37237;SDS011;23129;49.662;8.448;2023-11-19T06:48:44;5.70;;;2.38;;
37237;SDS011;23129;49.662;8.448;2023-11-19T06:51:13;2.10;;;1.80;;
37237;SDS011;23129;49.662;8.448;2023-11-19T06:53:42;1.33;;;1.20;;
37237;SDS011;23129;49.662;8.448;2023-11-19T06:56:18;3.05;;;1.52;;
37237;SDS011;23129;49.662;8.448;2023-11-19T06:58:48;1.42;;;1.13;;
37237;SDS011;23129;49.662;8.448;2023-11-19T07:01:17;4.30;;;1.83;;
37237;SDS011;23129;49.662;8.448;2023-11-19T07:03:48;1.85;;;1.13;;
37237;SDS011;23129;49.662;8.448;2023-11-19T07:06:17;1.88;;;1.20;;
37237;SDS011;23129;49.662;8.448;2023-11-19T07:09:00;3.05;;;1.10;;
37237;SDS011;23129;49.662;8.448;2023-11-19T07:11:36;1.13;;;1.05;;
37237;SDS011;23129;49.662;8.448;2023-11-19T07:14:06;1.77;;;1.05;;
37237;SDS011;23129;49.662;8.448;2023-11-19T07:16:35;9.30;;;1.73;;
37237;SDS011;23129;49.662;8.448;2023-11-19T07:19:06;5.32;;;1.48;;
37237;SDS011;23129;49.662;8.448;2023-11-19T07:21:35;4.63;;;2.08;;
37237;SDS011;23129;49.662;8.448;2023-11-19T07:24:06;3.05;;;1.40;;
37237;SDS011;23129;49.662;8.448;2023-11-19T07:26:35;5.95;;;1.75;;
37237;SDS011;23129;49.662;8.448;2023-11-19T07:29:04;2.30;;;1.67;;
37237;SDS011;23129;49.662;8.448;2023-11-19T07:31:34;2.85;;;1.38;;
37237;SDS011;23129;49.662;8.448;2023-11-19T07:34:03;2.30;;;2.10;;
37237;SDS011;23129;49.662;8.448;2023-11-19T07:36:34;4.18;;;2.00;;
37237;SDS011;23129;49.662;8.448;2023-11-19T07:39:02;5.05;;;2.58;;
37237;SDS011;23129;49.662;8.448;2023-11-19T07:41:32;3.22;;;1.80;;
37237;SDS011;23129;49.662;8.448;2023-11-19T07:44:04;7.15;;;2.10;;
37237;SDS011;23129;49.662;8.448;2023-11-19T07:46:34;1.40;;;1.30;;
37237;SDS011;23129;49.662;8.448;2023-11-19T07:49:02;11.85;;;1.83;;
37237;SDS011;23129;49.662;8.448;2023-11-19T07:51:31;7.55;;;1.73;;
37237;SDS011;23129;49.662;8.448;2023-11-19T07:54:01;10.68;;;1.40;;
37237;SDS011;23129;49.662;8.448;2023-11-19T07:56:30;1.73;;;1.63;;
37237;SDS011;23129;49.662;8.448;2023-11-19T07:59:01;6.50;;;2.50;;
37237;SDS011;23129;49.662;8.448;2023-11-19T08:01:29;4.30;;;1.70;;
37237;SDS011;23129;49.662;8.448;2023-11-19T08:03:58;5.95;;;2.40;;
37237;SDS011;23129;49.662;8.448;2023-11-19T08:06:28;2.95;;;1.98;;
37237;SDS011;23129;49.662;8.448;2023-11-19T08:08:58;3.97;;;2.00;;
37237;SDS011;23129;49.662;8.448;2023-11-19T08:11:27;4.72;;;2.33;;
37237;SDS011;23129;49.662;8.448;2023-11-19T08:13:56;2.85;;;2.08;;
37237;SDS011;23129;49.662;8.448;2023-11-19T08:16:25;7.13;;;2.47;;
37237;SDS011;23129;49.662;8.448;2023-11-19T08:18:54;8.98;;;2.45;;
37237;SDS011;23129;49.662;8.448;2023-11-19T08:21:24;6.07;;;2.30;;
37237;SDS011;23129;49.662;8.448;2023-11-19T08:23:53;5.65;;;3.42;;
37237;SDS011;23129;49.662;8.448;2023-11-19T08:26:23;12.50;;;4.28;;
37237;SDS011;23129;49.662;8.448;2023-11-19T08:28:52;6.28;;;3.35;;
37237;SDS011;23129;49.662;8.448;2023-11-19T08:31:20;5.45;;;2.40;;
37237;SDS011;23129;49.662;8.448;2023-11-19T08:33:49;2.08;;;1.75;;
37237;SDS011;23129;49.662;8.448;2023-11-19T08:36:18;5.95;;;1.40;;
37237;SDS011;23129;49.662;8.448;2023-11-19T08:38:47;3.42;;;1.55;;
37237;SDS011;23129;49.662;8.448;2023-11-19T08:41:16;1.73;;;1.20;;
37237;SDS011;23129;49.662;8.448;2023-11-19T08:43:47;4.47;;;0.80;;
37237;SDS011;23129;49.662;8.448;2023-11-19T08:46:16;4.45;;;0.90;;
37237;SDS011;23129;49.662;8.448;2023-11-19T08:48:45;1.73;;;0.60;;
37237;SDS011;23129;49.662;8.448;2023-11-19T08:51:13;0.82;;;0.80;;
37237;SDS011;23129;49.662;8.448;2023-11-19T08:53:41;2.00;;;0.75;;
37237;SDS011;23129;49.662;8.448;2023-11-19T08:56:10;1.30;;;0.70;;
37237;SDS011;23129;49.662;8.448;2023-11-19T08:58:39;0.88;;;0.75;;
37237;SDS011;23129;49.662;8.448;2023-11-19T09:01:09;2.10;;;1.00;;
37237;SDS011;23129;49.662;8.448;2023-11-19T09:03:37;0.40;;;0.40;;
37237;SDS011;23129;49.662;8.448;2023-11-19T09:06:07;1.92;;;1.10;;
37237;SDS011;23129;49.662;8.448;2023-11-19T09:08:35;1.45;;;1.20;;
37237;SDS011;23129;49.662;8.448;2023-11-19T09:11:06;11.50;;;1.13;;
37237;SDS011;23129;49.662;8.448;2023-11-19T09:13:36;1.45;;;1.02;;
37237;SDS011;23129;49.662;8.448;2023-11-19T09:16:04;5.55;;;1.95;;
37237;SDS011;23129;49.662;8.448;2023-11-19T09:18:35;3.17;;;1.50;;
37237;SDS011;23129;49.662;8.448;2023-11-19T09:21:04;2.45;;;1.10;;
37237;SDS011;23129;49.662;8.448;2023-11-19T09:23:33;2.10;;;1.50;;
37237;SDS011;23129;49.662;8.448;2023-11-19T09:26:05;3.17;;;0.95;;
37237;SDS011;23129;49.662;8.448;2023-11-19T09:28:36;3.65;;;1.30;;
37237;SDS011;23129;49.662;8.448;2023-11-19T09:31:12;6.40;;;2.90;;
37237;SDS011;23129;49.662;8.448;2023-11-19T09:33:42;3.38;;;1.80;;
37237;SDS011;23129;49.662;8.448;2023-11-19T09:36:12;9.10;;;1.65;;
37237;SDS011;23129;49.662;8.448;2023-11-19T09:38:43;5.05;;;1.85;;
37237;SDS011;23129;49.662;8.448;2023-11-19T09:41:11;4.63;;;1.58;;
37237;SDS011;23129;49.662;8.448;2023-11-19T09:43:41;6.47;;;2.97;;
37237;SDS011;23129;49.662;8.448;2023-11-19T09:46:10;3.72;;;1.60;;
37237;SDS011;23129;49.662;8.448;2023-11-19T09:48:44;5.32;;;1.63;;
37237;SDS011;23129;49.662;8.448;2023-11-19T09:51:14;8.30;;;2.97;;
37237;SDS011;23129;49.662;8.448;2023-11-19T09:53:43;5.82;;;2.92;;
37237;SDS011;23129;49.662;8.448;2023-11-19T09:56:12;5.78;;;1.77;;
37237;SDS011;23129;49.662;8.448;2023-11-19T09:58:43;3.97;;;1.10;;
37237;SDS011;23129;49.662;8.448;2023-11-19T10:01:11;5.80;;;1.27;;
37237;SDS011;23129;49.662;8.448;2023-11-19T10:03:46;4.88;;;1.27;;
37237;SDS011;23129;49.662;8.448;2023-11-19T10:06:17;1.60;;;1.50;;
37237;SDS011;23129;49.662;8.448;2023-11-19T10:08:47;2.65;;;1.42;;
37237;SDS011;23129;49.662;8.448;2023-11-19T10:11:15;7.57;;;1.73;;
37237;SDS011;23129;49.662;8.448;2023-11-19T10:13:46;5.38;;;2.10;;
37237;SDS011;23129;49.662;8.448;2023-11-19T10:16:15;5.75;;;1.95;;
37237;SDS011;23129;49.662;8.448;2023-11-19T10:18:46;5.18;;;2.28;;
37237;SDS011;23129;49.662;8.448;2023-11-19T10:21:17;4.85;;;2.55;;
37237;SDS011;23129;49.662;8.448;2023-11-19T10:23:47;2.83;;;2.35;;
37237;SDS011;23129;49.662;8.448;2023-11-19T10:26:18;10.55;;;2.88;;
37237;SDS011;23129;49.662;8.448;2023-11-19T10:28:47;6.35;;;2.50;;
37237;SDS011;23129;49.662;8.448;2023-11-19T10:31:17;3.88;;;2.45;;
37237;SDS011;23129;49.662;8.448;2023-11-19T10:33:52;4.20;;;2.00;;
37237;SDS011;23129;49.662;8.448;2023-11-19T10:36:21;3.53;;;1.65;;
37237;SDS011;23129;49.662;8.448;2023-11-19T10:38:51;2.45;;;1.02;;
37237;SDS011;23129;49.662;8.448;2023-11-19T10:41:27;11.50;;;1.52;;
37237;SDS011;23129;49.662;8.448;2023-11-19T10:43:57;4.55;;;1.63;;
37237;SDS011;23129;49.662;8.448;2023-11-19T10:46:36;5.22;;;1.98;;
37237;SDS011;23129;49.662;8.448;2023-11-19T10:49:07;1.60;;;0.90;;
37237;SDS011;23129;49.662;8.448;2023-11-19T10:51:37;1.10;;;0.80;;
37237;SDS011;23129;49.662;8.448;2023-11-19T10:54:12;2.58;;;1.15;;
37237;SDS011;23129;49.662;8.448;2023-11-19T10:56:47;2.35;;;1.48;;
37237;SDS011;23129;49.662;8.448;2023-11-19T10:59:26;1.77;;;0.80;;
37237;SDS011;23129;49.662;8.448;2023-11-19T11:02:00;8.47;;;1.03;;
37237;SDS011;23129;49.662;8.448;2023-11-19T11:04:39;5.57;;;1.08;;
37237;SDS011;23129;49.662;8.448;2023-11-19T11:07:09;3.33;;;1.30;;
37237;SDS011;23129;49.662;8.448;2023-11-19T11:09:39;3.15;;;1.02;;
37237;SDS011;23129;49.662;8.448;2023-11-19T11:12:09;6.80;;;1.58;;
37237;SDS011;23129;49.662;8.448;2023-11-19T11:14:39;3.55;;;1.35;;
37237;SDS011;23129;49.662;8.448;2023-11-19T11:17:09;5.22;;;1.40;;
37237;SDS011;23129;49.662;8.448;2023-11-19T11:19:43;7.57;;;1.38;;
37237;SDS011;23129;49.662;8.448;2023-11-19T11:22:12;6.75;;;1.60;;
37237;SDS011;23129;49.662;8.448;2023-11-19T11:25:05;8.43;;;1.00;;
37237;SDS011;23129;49.662;8.448;2023-11-19T11:28:05;1.95;;;1.42;;
37237;SDS011;23129;49.662;8.448;2023-11-19T11:30:51;9.07;;;1.92;;
37237;SDS011;23129;49.662;8.448;2023-11-19T11:33:38;7.70;;;1.58;;
37237;SDS011;23129;49.662;8.448;2023-11-19T11:36:28;5.97;;;1.30;;
37237;SDS011;23129;49.662;8.448;2023-11-19T11:39:02;5.95;;;1.08;;
37237;SDS011;23129;49.662;8.448;2023-11-19T11:41:34;10.68;;;1.52;;
37237;SDS011;23129;49.662;8.448;2023-11-19T11:44:03;3.15;;;1.10;;
37237;SDS011;23129;49.662;8.448;2023-11-19T11:49:26;4.18;;;1.85;;
37237;SDS011;23129;49.662;8.448;2023-11-19T11:51:59;4.15;;;1.20;;
37237;SDS011;23129;49.662;8.448;2023-11-19T11:54:32;4.15;;;0.93;;
37237;SDS011;23129;49.662;8.448;2023-11-19T11:57:02;0.82;;;0.80;;
37237;SDS011;23129;49.662;8.448;2023-11-19T11:59:47;4.07;;;1.35;;
37237;SDS011;23129;49.662;8.448;2023-11-19T12:02:17;9.35;;;2.20;;
37237;SDS011;23129;49.662;8.448;2023-11-19T12:04:48;2.13;;;0.73;;
37237;SDS011;23129;49.662;8.448;2023-11-19T12:07:20;6.32;;;1.33;;
37237;SDS011;23129;49.662;8.448;2023-11-19T12:09:53;2.60;;;0.60;;
37237;SDS011;23129;49.662;8.448;2023-11-19T12:12:35;5.13;;;0.98;;
37237;SDS011;23129;49.662;8.448;2023-11-19T12:15:06;4.38;;;0.77;;
37237;SDS011;23129;49.662;8.448;2023-11-19T12:17:38;7.00;;;1.30;;
37237;SDS011;23129;49.662;8.448;2023-11-19T12:20:16;6.35;;;1.08;;
37237;SDS011;23129;49.662;8.448;2023-11-19T12:23:02;4.77;;;0.70;;
37237;SDS011;23129;49.662;8.448;2023-11-19T12:25:34;5.32;;;1.20;;
37237;SDS011;23129;49.662;8.448;2023-11-19T12:28:02;3.50;;;1.00;;
37237;SDS011;23129;49.662;8.448;2023-11-19T12:30:32;2.63;;;0.93;;
37237;SDS011;23129;49.662;8.448;2023-11-19T12:33:07;4.50;;;0.82;;
37237;SDS011;23129;49.662;8.448;2023-11-19T12:35:38;2.55;;;0.80;;
37237;SDS011;23129;49.662;8.448;2023-11-19T12:38:17;8.07;;;1.55;;
37237;SDS011;23129;49.662;8.448;2023-11-19T12:40:47;4.25;;;1.15;;
37237;SDS011;23129;49.662;8.448;2023-11-19T12:43:29;3.28;;;1.33;;
37237;SDS011;23129;49.662;8.448;2023-11-19T12:45:58;4.72;;;0.98;;
37237;SDS011;23129;49.662;8.448;2023-11-19T12:48:29;7.07;;;0.98;;
37237;SDS011;23129;49.662;8.448;2023-11-19T12:50:58;3.17;;;0.80;;
37237;SDS011;23129;49.662;8.448;2023-11-19T12:53:29;3.38;;;0.82;;
37237;SDS011;23129;49.662;8.448;2023-11-19T12:56:16;2.65;;;0.93;;
37237;SDS011;23129;49.662;8.448;2023-11-19T12:58:45;5.78;;;1.23;;
37237;SDS011;23129;49.662;8.448;2023-11-19T13:01:15;3.03;;;0.75;;
37237;SDS011;23129;49.662;8.448;2023-11-19T13:03:46;1.85;;;0.52;;
37237;SDS011;23129;49.662;8.448;2023-11-19T13:06:17;2.30;;;0.70;;
37237;SDS011;23129;49.662;8.448;2023-11-19T13:08:49;3.67;;;0.90;;
37237;SDS011;23129;49.662;8.448;2023-11-19T13:11:29;3.47;;;0.80;;
37237;SDS011;23129;49.662;8.448;2023-11-19T13:14:00;3.33;;;1.27;;
37237;SDS011;23129;49.662;8.448;2023-11-19T13:16:32;7.70;;;0.60;;
37237;SDS011;23129;49.662;8.448;2023-11-19T13:19:00;2.55;;;0.90;;
37237;SDS011;23129;49.662;8.448;2023-11-19T13:21:29;4.47;;;1.00;;
37237;SDS011;23129;49.662;8.448;2023-11-19T13:23:59;1.92;;;0.82;;
37237;SDS011;23129;49.662;8.448;2023-11-19T13:26:28;5.20;;;0.88;;
37237;SDS011;23129;49.662;8.448;2023-11-19T13:28:57;2.45;;;0.82;;
37237;SDS011;23129;49.662;8.448;2023-11-19T13:31:25;2.80;;;0.70;;
37237;SDS011;23129;49.662;8.448;2023-11-19T13:33:54;4.90;;;1.02;;
37237;SDS011;23129;49.662;8.448;2023-11-19T13:36:25;5.60;;;0.88;;
37237;SDS011;23129;49.662;8.448;2023-11-19T13:38:53;5.80;;;0.98;;
37237;SDS011;23129;49.662;8.448;2023-11-19T13:41:27;1.45;;;0.85;;
37237;SDS011;23129;49.662;8.448;2023-11-19T13:43:55;6.38;;;0.73;;
37237;SDS011;23129;49.662;8.448;2023-11-19T13:46:24;8.88;;;0.82;;
37237;SDS011;23129;49.662;8.448;2023-11-19T13:48:52;4.32;;;1.15;;
37237;SDS011;23129;49.662;8.448;2023-11-19T13:51:21;9.75;;;0.90;;
37237;SDS011;23129;49.662;8.448;2023-11-19T13:53:50;7.30;;;1.00;;
37237;SDS011;23129;49.662;8.448;2023-11-19T13:56:19;4.88;;;0.90;;
37237;SDS011;23129;49.662;8.448;2023-11-19T13:58:49;4.65;;;1.20;;
37237;SDS011;23129;49.662;8.448;2023-11-19T14:01:19;1.65;;;0.95;;
37237;SDS011;23129;49.662;8.448;2023-11-19T14:03:51;1.30;;;0.73;;
37237;SDS011;23129;49.662;8.448;2023-11-19T14:06:20;6.32;;;0.90;;
37237;SDS011;23129;49.662;8.448;2023-11-19T14:08:49;7.28;;;0.85;;
37237;SDS011;23129;49.662;8.448;2023-11-19T14:11:18;6.60;;;1.05;;
37237;SDS011;23129;49.662;8.448;2023-11-19T14:13:48;3.60;;;1.00;;
37237;SDS011;23129;49.662;8.448;2023-11-19T14:16:17;3.33;;;0.90;;
37237;SDS011;23129;49.662;8.448;2023-11-19T14:18:46;5.70;;;0.88;;
37237;SDS011;23129;49.662;8.448;2023-11-19T14:21:15;4.97;;;0.70;;
37237;SDS011;23129;49.662;8.448;2023-11-19T14:23:44;5.88;;;0.90;;
37237;SDS011;23129;49.662;8.448;2023-11-19T14:26:13;3.72;;;1.30;;
37237;SDS011;23129;49.662;8.448;2023-11-19T14:28:41;3.78;;;0.82;;
37237;SDS011;23129;49.662;8.448;2023-11-19T14:31:16;1.83;;;0.70;;
37237;SDS011;23129;49.662;8.448;2023-11-19T14:33:45;8.05;;;0.98;;
37237;SDS011;23129;49.662;8.448;2023-11-19T14:36:14;3.15;;;0.70;;
37237;SDS011;23129;49.662;8.448;2023-11-19T14:38:43;3.65;;;0.80;;
37237;SDS011;23129;49.662;8.448;2023-11-19T14:41:12;2.38;;;0.82;;
37237;SDS011;23129;49.662;8.448;2023-11-19T14:43:40;3.15;;;0.73;;
37237;SDS011;23129;49.662;8.448;2023-11-19T14:46:09;4.25;;;0.82;;
37237;SDS011;23129;49.662;8.448;2023-11-19T14:48:39;2.13;;;0.77;;
37237;SDS011;23129;49.662;8.448;2023-11-19T14:51:08;1.70;;;0.82;;
37237;SDS011;23129;49.662;8.448;2023-11-19T14:53:36;4.03;;;0.90;;
37237;SDS011;23129;49.662;8.448;2023-11-19T14:56:05;4.63;;;1.40;;
37237;SDS011;23129;49.662;8.448;2023-11-19T14:58:39;3.53;;;1.00;;
37237;SDS011;23129;49.662;8.448;2023-11-19T15:01:11;5.38;;;1.33;;
37237;SDS011;23129;49.662;8.448;2023-11-19T15:03:41;4.07;;;1.05;;
37237;SDS011;23129;49.662;8.448;2023-11-19T15:06:14;3.13;;;1.30;;
37237;SDS011;23129;49.662;8.448;2023-11-19T15:08:43;2.97;;;0.60;;
37237;SDS011;23129;49.662;8.448;2023-11-19T15:11:12;3.15;;;1.10;;